Terminal Aerodrome Forecast
Issued by NWS

Home | Current Version | Previous Version | Text Only | Print | Product List | Glossary On
Versions: 1 2 3 4 5 6 7 8 9 10 11 12 13 14 15 16 17 18 19 20 21 22 23 24 25 26 27
000
FTUS43 KDVN 221556 AAC
TAFCID
TAF AMD
KCID 221556Z 2216/2312 24006KT P6SM BKN050
     FM230100 VRB02KT P6SM BKN150
     FM230800 VRB02KT 2SM BR OVC100=

USA.gov is the U.S. government's official web portal to all federal, state and local government web resources and services.